Izmir Cigli Air Force Base, Türkiye

Saat: 08:44 PM EET Tarih: 04 Mart 2015 (GMT +0200)
Adnan Menderes | Change Station
CLOSE
Current Station
Hava Meydanı
Location: Izmir,
Yükseklik: 394 ft
Nearby Weather Stations

Elev 394 ft 38.29 °N, 27.15 °E | Updated 24 minutes ago

Clear
Açık
46
Feels Like 42
N
8
Rüzgar Değişken Rüzgar from Kuzey

Bugün
High -- | Low -- F°
--% Chance of Precip.
Dün
High -- | Low -- F°
Precip. -- inç
6:40 AM 6:07 PM
Şişkin Ay, 99% visible
Basınç 30.21 inç
Görüş Uzaklığı -9999.0 mil
Bulutlar
Rüzgar Etkisi 42
Çiğ noktası 34
Nem oranı 62%
Yağış 0.00 inç
Kar Kalınlığı Not available.
Not available.
Pollen Not available.
Hava Kalitesi Not available.
Flu Activity Not available.
METAR LTBJ 041820Z 01007KT CAVOK 08/01 Q1023 NOSIG

More Conditions Fewer Conditions

Basınç 30.21 inç
Görüş Uzaklığı -9999.0 mil
Bulutlar
Rüzgar Etkisi 42
Çiğ noktası 34
Nem oranı 62%
Yağış 0.00 inç
Kar Kalınlığı Not available.
Not available.
Pollen Not available.
Hava Kalitesi Not available.
Flu Activity Not available.
METAR LTBJ 041820Z 01007KT CAVOK 08/01 Q1023 NOSIG

More Conditions Fewer Conditions

10-Day Weather Forecast

Almanac

Gökbilim

Mar. 04, 2015 Rise Set
Gerçek Zaman
Günlük Tan
Deniz Tanı
Geceyarısı Yıldız Zamanı
Ay
Görünür Işığın Uzunluğu
Günün Uzunluğu
Tomorrow will be .
, % of the Moon is Illuminated

Günün En Yüksekleri

Country Highs Country Lows

Community

WunderPhotos

Upload Photos

1,802,536 photos uploaded!

WunderBlogs® & News

Nearby

Hava Kalitesi

  Hava Kalitesi Hava Kalitesi Endeksi Kirletici
Not available.

Kar Kalınlığı

Station Depth Yükseklik

Earthquake Activity

Şehir Distance Mag. Time & Date
Minimum magnitude displayed is 2.5.

Coastal Water Temperatures

Yer Sıcaklık

Nearby Weather Stations